createdAt,value
2022-07-31T00:00:27.634Z,1.40
2022-07-31T00:02:54.900Z,1.80
2022-07-31T00:05:22.232Z,1.40
2022-07-31T00:07:50.069Z,2.00
2022-07-31T00:10:17.448Z,1.80
2022-07-31T00:12:44.730Z,1.80
2022-07-31T00:15:12.733Z,1.55
2022-07-31T00:17:40.171Z,1.70
2022-07-31T00:20:07.812Z,2.08
2022-07-31T00:25:03.051Z,1.98
2022-07-31T00:27:30.266Z,1.67
2022-07-31T00:29:58.267Z,1.70
2022-07-31T00:32:25.543Z,1.70
2022-07-31T00:34:53.053Z,1.70
2022-07-31T00:37:21.009Z,1.88
2022-07-31T00:39:48.344Z,1.83
2022-07-31T00:42:19.195Z,1.95
2022-07-31T00:44:47.855Z,1.85
2022-07-31T00:47:15.679Z,2.30
2022-07-31T00:49:43.588Z,2.00
2022-07-31T00:52:10.967Z,1.77
2022-07-31T00:54:38.115Z,1.77
2022-07-31T00:57:05.723Z,1.85
2022-07-31T00:59:33.502Z,1.90
2022-07-31T01:02:00.858Z,1.65
2022-07-31T01:04:27.992Z,1.73
2022-07-31T01:06:59.647Z,1.80
2022-07-31T01:09:27.105Z,1.83
2022-07-31T01:12:00.451Z,2.00
2022-07-31T01:14:29.879Z,1.73
2022-07-31T01:16:58.052Z,1.33
2022-07-31T01:19:42.027Z,1.75
2022-07-31T01:22:34.715Z,1.67
2022-07-31T01:25:11.761Z,1.50
2022-07-31T01:27:57.705Z,1.58
2022-07-31T01:30:30.440Z,1.90
2022-07-31T01:32:58.741Z,2.00
2022-07-31T01:35:31.207Z,1.60
2022-07-31T01:38:04.438Z,1.75
2022-07-31T01:40:41.087Z,2.03
2022-07-31T01:43:09.533Z,1.88
2022-07-31T01:45:38.588Z,1.60
2022-07-31T01:48:06.876Z,2.13
2022-07-31T01:50:42.421Z,2.03
2022-07-31T01:53:13.919Z,2.08
2022-07-31T01:55:56.696Z,1.67
2022-07-31T01:58:31.130Z,1.83
2022-07-31T02:00:58.524Z,2.15
2022-07-31T02:03:43.650Z,1.95
2022-07-31T02:06:16.734Z,1.88
2022-07-31T02:08:47.814Z,2.20
2022-07-31T02:11:19.488Z,2.03
2022-07-31T02:13:47.756Z,1.60
2022-07-31T02:16:15.539Z,1.92
2022-07-31T02:18:43.397Z,1.92
2022-07-31T02:21:10.905Z,1.75
2022-07-31T02:23:38.636Z,1.90
2022-07-31T02:26:07.448Z,2.10
2022-07-31T02:28:36.654Z,1.88
2022-07-31T02:31:03.909Z,1.65
2022-07-31T02:33:31.937Z,1.70
2022-07-31T02:35:59.435Z,2.00
2022-07-31T02:38:27.907Z,1.63
2022-07-31T02:40:57.164Z,1.85
2022-07-31T02:43:25.358Z,1.95
2022-07-31T02:45:52.646Z,1.88
2022-07-31T02:48:20.589Z,2.00
2022-07-31T02:50:48.081Z,1.80
2022-07-31T02:53:15.318Z,1.63
2022-07-31T02:55:45.537Z,1.77
2022-07-31T02:58:13.282Z,1.52
2022-07-31T03:00:40.558Z,1.77
2022-07-31T03:03:08.093Z,2.00
2022-07-31T03:05:35.338Z,2.17
2022-07-31T03:08:02.477Z,1.73
2022-07-31T03:10:30.197Z,1.83
2022-07-31T03:12:58.162Z,2.00
2022-07-31T03:15:26.728Z,1.88
2022-07-31T03:17:54.539Z,1.58
2022-07-31T03:20:22.004Z,1.80
2022-07-31T03:22:49.234Z,1.73
2022-07-31T03:25:20.291Z,2.20
2022-07-31T03:27:55.805Z,2.17
2022-07-31T03:30:28.093Z,2.00
2022-07-31T03:32:56.233Z,1.88
2022-07-31T03:35:24.400Z,2.15
2022-07-31T03:37:51.853Z,2.08
2022-07-31T03:40:19.018Z,1.90
2022-07-31T03:42:46.888Z,1.90
2022-07-31T03:45:15.068Z,1.90
2022-07-31T03:47:42.224Z,2.40
2022-07-31T03:50:09.645Z,2.00
2022-07-31T03:52:37.447Z,2.17
2022-07-31T03:55:04.826Z,2.17
2022-07-31T03:57:34.081Z,2.05
2022-07-31T04:00:03.408Z,2.53
2022-07-31T04:02:31.945Z,2.08
2022-07-31T04:05:00.032Z,2.50
2022-07-31T04:07:28.839Z,2.30
2022-07-31T04:09:56.127Z,2.30
2022-07-31T04:12:23.453Z,2.13
2022-07-31T04:14:50.913Z,2.30
2022-07-31T04:17:18.422Z,1.98
2022-07-31T04:19:45.757Z,2.45
2022-07-31T04:22:13.166Z,2.20
2022-07-31T04:24:40.754Z,1.70
2022-07-31T04:29:40.201Z,2.03
2022-07-31T04:34:34.860Z,2.60
2022-07-31T04:37:02.547Z,2.00
2022-07-31T04:39:29.876Z,2.03
2022-07-31T04:41:57.101Z,1.98
2022-07-31T04:44:24.788Z,2.00
2022-07-31T04:49:19.132Z,2.05
2022-07-31T04:51:46.671Z,2.05
2022-07-31T04:54:13.824Z,2.00
2022-07-31T04:56:44.180Z,1.75
2022-07-31T04:59:13.296Z,2.03
2022-07-31T05:01:41.065Z,1.90
2022-07-31T05:04:09.234Z,1.95
2022-07-31T05:06:40.725Z,1.88
2022-07-31T05:09:12.426Z,2.28
2022-07-31T05:11:43.259Z,1.77
2022-07-31T05:14:11.230Z,1.77
2022-07-31T05:16:38.852Z,2.25
2022-07-31T05:21:33.608Z,1.80
2022-07-31T05:24:32.738Z,2.25
2022-07-31T05:27:01.036Z,1.80
2022-07-31T05:29:28.406Z,2.17
2022-07-31T05:32:00.212Z,2.15
2022-07-31T05:34:37.673Z,2.10
2022-07-31T05:37:04.897Z,2.00
2022-07-31T05:39:32.074Z,2.42
2022-07-31T05:41:59.532Z,1.95
2022-07-31T05:44:26.679Z,2.30
2022-07-31T05:49:20.612Z,2.08
2022-07-31T05:51:48.330Z,2.10
2022-07-31T05:54:15.480Z,2.50
2022-07-31T05:56:43.014Z,2.30
2022-07-31T06:01:37.602Z,2.22
2022-07-31T06:06:32.164Z,2.13
2022-07-31T06:09:04.111Z,1.80
2022-07-31T06:11:32.469Z,1.70
2022-07-31T06:16:26.677Z,2.00
2022-07-31T06:18:54.297Z,1.67
2022-07-31T06:23:47.604Z,1.90
2022-07-31T06:26:15.353Z,1.80
2022-07-31T06:28:47.868Z,1.92
2022-07-31T06:31:23.476Z,2.30
2022-07-31T06:33:51.205Z,1.67
2022-07-31T06:36:20.153Z,1.77
2022-07-31T06:38:47.734Z,1.80
2022-07-31T06:44:02.251Z,1.48
2022-07-31T06:46:29.382Z,2.03
2022-07-31T06:48:56.661Z,1.88
2022-07-31T06:51:32.354Z,1.67
2022-07-31T06:54:03.498Z,2.13
2022-07-31T06:56:32.091Z,1.60
2022-07-31T06:58:59.263Z,1.77
2022-07-31T07:01:26.634Z,2.13
2022-07-31T07:03:54.041Z,1.63
2022-07-31T07:06:21.290Z,2.10
2022-07-31T07:08:48.525Z,1.58
2022-07-31T07:11:16.383Z,1.70
2022-07-31T07:13:45.257Z,1.83
2022-07-31T07:16:14.079Z,2.00
2022-07-31T07:21:09.024Z,2.00
2022-07-31T07:26:03.905Z,2.00
2022-07-31T07:28:31.597Z,2.00
2022-07-31T07:30:59.232Z,2.08
2022-07-31T07:36:23.223Z,1.92
2022-07-31T07:38:51.228Z,1.70
2022-07-31T07:41:18.760Z,1.67
2022-07-31T07:43:48.624Z,1.95
2022-07-31T07:46:20.049Z,1.67
2022-07-31T07:48:47.354Z,1.98
2022-07-31T07:51:14.742Z,1.73
2022-07-31T07:53:42.321Z,2.13
2022-07-31T07:58:36.513Z,1.83
2022-07-31T08:01:04.219Z,1.80
2022-07-31T08:03:48.390Z,1.80
2022-07-31T08:06:18.815Z,2.10
2022-07-31T08:08:46.007Z,1.95
2022-07-31T08:11:17.510Z,2.08
2022-07-31T08:13:49.768Z,1.60
2022-07-31T08:16:18.003Z,2.03
2022-07-31T08:18:45.634Z,1.50
2022-07-31T08:23:39.899Z,1.80
2022-07-31T08:26:08.751Z,2.08
2022-07-31T08:28:36.732Z,1.63
2022-07-31T08:31:03.919Z,1.50
2022-07-31T08:33:33.281Z,1.40
2022-07-31T08:36:01.195Z,1.75
2022-07-31T08:38:28.961Z,1.80
2022-07-31T08:40:57.159Z,1.83
2022-07-31T08:44:03.058Z,1.88
2022-07-31T08:46:13.016Z,1.80
2022-07-31T08:48:43.917Z,1.63
2022-07-31T08:51:14.634Z,1.60
2022-07-31T08:53:43.181Z,1.67
2022-07-31T08:56:10.633Z,1.50
2022-07-31T08:58:39.799Z,2.22
2022-07-31T09:01:08.291Z,1.23
2022-07-31T09:03:36.454Z,1.77
2022-07-31T09:06:04.086Z,1.48
2022-07-31T09:08:34.816Z,1.52
2022-07-31T09:11:03.304Z,2.13
2022-07-31T09:13:34.950Z,1.73
2022-07-31T09:16:02.730Z,1.30
2022-07-31T09:18:29.989Z,1.48
2022-07-31T09:21:00.099Z,1.63
2022-07-31T09:23:29.810Z,1.60
2022-07-31T09:25:57.991Z,1.60
2022-07-31T09:28:37.274Z,1.20
2022-07-31T09:31:05.441Z,1.30
2022-07-31T09:33:32.728Z,1.48
2022-07-31T09:36:00.395Z,1.25
2022-07-31T09:38:37.113Z,1.38
2022-07-31T09:41:55.804Z,1.25
2022-07-31T09:44:10.136Z,1.50
2022-07-31T09:46:41.442Z,1.45
2022-07-31T09:49:08.756Z,1.50
2022-07-31T09:51:40.671Z,1.35
2022-07-31T09:54:08.711Z,1.23
2022-07-31T09:56:37.166Z,1.23
2022-07-31T09:59:06.654Z,1.35
2022-07-31T10:01:36.684Z,1.40
2022-07-31T10:04:06.034Z,1.20
2022-07-31T10:06:35.295Z,1.50
2022-07-31T10:09:03.928Z,1.33
2022-07-31T10:11:32.402Z,1.40
2022-07-31T10:14:04.051Z,1.10
2022-07-31T10:16:36.169Z,1.30
2022-07-31T10:19:11.339Z,1.60
2022-07-31T10:21:44.685Z,0.80
2022-07-31T10:24:13.165Z,1.10
2022-07-31T10:27:00.786Z,1.00
2022-07-31T10:29:32.192Z,1.10
2022-07-31T10:32:00.280Z,0.95
2022-07-31T10:34:28.026Z,0.95
2022-07-31T10:36:57.234Z,1.00
2022-07-31T10:39:42.823Z,1.00
2022-07-31T10:42:13.464Z,1.00
2022-07-31T10:44:45.737Z,0.90
2022-07-31T10:47:16.824Z,1.00
2022-07-31T10:49:45.486Z,1.35
2022-07-31T10:52:12.776Z,1.05
2022-07-31T10:57:07.691Z,1.05
2022-07-31T10:59:35.105Z,1.20
2022-07-31T11:02:02.726Z,0.80
2022-07-31T11:04:33.225Z,0.90
2022-07-31T11:07:00.603Z,0.80
2022-07-31T11:11:56.793Z,1.20
2022-07-31T11:16:55.955Z,0.93
2022-07-31T11:19:23.562Z,0.90
2022-07-31T11:21:50.703Z,1.35
2022-07-31T11:24:22.530Z,1.15
2022-07-31T11:26:54.164Z,1.15
2022-07-31T11:29:59.620Z,1.20
2022-07-31T11:32:28.194Z,0.90
2022-07-31T11:34:56.266Z,1.30
2022-07-31T11:37:24.742Z,1.05
2022-07-31T11:39:53.109Z,0.73
2022-07-31T11:42:26.408Z,1.63
2022-07-31T11:45:02.116Z,1.08
2022-07-31T11:48:11.067Z,1.20
2022-07-31T11:50:31.288Z,0.95
2022-07-31T11:53:07.382Z,1.10
2022-07-31T11:55:44.688Z,1.00
2022-07-31T11:58:12.220Z,0.90
2022-07-31T12:00:39.438Z,0.88
2022-07-31T12:03:09.323Z,1.05
2022-07-31T12:05:44.623Z,0.95
2022-07-31T12:08:12.823Z,1.02
2022-07-31T12:10:40.666Z,0.88
2022-07-31T12:13:15.720Z,1.20
2022-07-31T12:15:54.215Z,1.00
2022-07-31T12:20:55.361Z,1.20
2022-07-31T12:23:40.652Z,0.90
2022-07-31T12:26:09.227Z,0.82
2022-07-31T12:28:36.596Z,1.10
2022-07-31T12:33:41.776Z,0.82
2022-07-31T12:36:12.815Z,1.20
2022-07-31T12:38:44.859Z,1.05
2022-07-31T12:41:14.582Z,1.02
2022-07-31T12:43:52.113Z,1.20
2022-07-31T12:46:37.026Z,1.08
2022-07-31T12:49:05.481Z,1.08
2022-07-31T12:51:45.519Z,0.85
2022-07-31T12:54:16.163Z,1.00
2022-07-31T12:56:43.628Z,0.93
2022-07-31T12:59:10.867Z,1.00
2022-07-31T13:01:38.600Z,0.75
2022-07-31T13:04:07.961Z,0.95
2022-07-31T13:06:48.699Z,1.05
2022-07-31T13:09:16.152Z,1.08
2022-07-31T13:11:48.238Z,1.10
2022-07-31T13:14:20.020Z,1.20
2022-07-31T13:16:47.859Z,1.33
2022-07-31T13:19:15.886Z,1.27
2022-07-31T13:21:49.436Z,0.82
2022-07-31T13:24:17.564Z,1.30
2022-07-31T13:26:45.747Z,1.00
2022-07-31T13:29:13.010Z,0.93
2022-07-31T13:34:08.780Z,1.20
2022-07-31T13:36:39.314Z,1.10
2022-07-31T13:39:07.351Z,1.63
2022-07-31T13:41:39.031Z,1.40
2022-07-31T13:44:07.079Z,0.93
2022-07-31T13:46:34.257Z,1.10
2022-07-31T13:49:02.923Z,1.33
2022-07-31T13:51:30.465Z,1.20
2022-07-31T13:53:57.634Z,1.25
2022-07-31T13:56:39.375Z,1.05
2022-07-31T13:59:10.046Z,1.00
2022-07-31T14:02:05.354Z,1.10
2022-07-31T14:04:28.615Z,1.15
2022-07-31T14:07:01.044Z,0.88
2022-07-31T14:09:28.630Z,1.30
2022-07-31T14:11:56.196Z,1.27
2022-07-31T14:14:24.602Z,0.75
2022-07-31T14:16:51.749Z,1.30
2022-07-31T14:19:18.884Z,0.90
2022-07-31T14:21:56.242Z,1.10
2022-07-31T14:24:24.034Z,0.93
2022-07-31T14:26:51.444Z,1.20
2022-07-31T14:31:45.654Z,1.00
2022-07-31T14:34:13.347Z,1.20
2022-07-31T14:36:40.536Z,1.20
2022-07-31T14:39:07.658Z,1.27
2022-07-31T14:41:35.469Z,1.20
2022-07-31T14:44:02.627Z,1.25
2022-07-31T14:46:29.780Z,1.02
2022-07-31T14:48:57.245Z,1.25
2022-07-31T14:51:24.666Z,1.83
2022-07-31T14:56:39.381Z,1.40
2022-07-31T14:59:07.588Z,1.17
2022-07-31T15:01:35.483Z,1.48
2022-07-31T15:04:02.872Z,0.93
2022-07-31T15:09:09.859Z,1.23
2022-07-31T15:11:59.843Z,1.15
2022-07-31T15:14:24.637Z,1.15
2022-07-31T15:16:51.811Z,1.20
2022-07-31T15:19:19.061Z,1.20
2022-07-31T15:22:09.936Z,1.40
2022-07-31T15:24:33.727Z,1.08
2022-07-31T15:27:01.317Z,1.42
2022-07-31T15:30:06.028Z,1.27
2022-07-31T15:32:16.765Z,1.15
2022-07-31T15:34:44.083Z,1.05
2022-07-31T15:37:11.294Z,1.00
2022-07-31T15:40:02.658Z,1.30
2022-07-31T15:42:31.869Z,1.15
2022-07-31T15:44:59.321Z,1.05
2022-07-31T15:49:53.548Z,1.00
2022-07-31T15:52:20.920Z,1.13
2022-07-31T15:57:19.370Z,0.90
2022-07-31T15:59:46.688Z,1.30
2022-07-31T16:02:13.819Z,1.48
2022-07-31T16:04:52.755Z,1.17
2022-07-31T16:08:30.039Z,1.00
2022-07-31T16:10:17.847Z,1.00
2022-07-31T16:12:46.313Z,1.27
2022-07-31T16:15:13.711Z,1.15
2022-07-31T16:20:10.388Z,1.30
2022-07-31T16:22:38.817Z,1.10
2022-07-31T16:25:07.043Z,1.20
2022-07-31T16:27:34.795Z,1.50
2022-07-31T16:30:03.061Z,1.35
2022-07-31T16:32:31.027Z,1.30
2022-07-31T16:35:01.396Z,1.25
2022-07-31T16:37:51.039Z,1.30
2022-07-31T16:40:27.036Z,1.13
2022-07-31T16:43:00.760Z,1.55
2022-07-31T16:45:29.538Z,0.90
2022-07-31T16:47:56.925Z,1.48
2022-07-31T16:50:24.305Z,1.38
2022-07-31T16:55:46.144Z,1.35
2022-07-31T16:58:11.622Z,1.30
2022-07-31T17:00:39.621Z,1.50
2022-07-31T17:03:06.902Z,1.55
2022-07-31T17:05:54.430Z,1.63
2022-07-31T17:10:52.595Z,1.10
2022-07-31T17:13:23.295Z,1.90
2022-07-31T17:15:50.489Z,1.20
2022-07-31T17:18:17.742Z,1.40
2022-07-31T17:20:47.304Z,1.40
2022-07-31T17:23:15.806Z,1.77
2022-07-31T17:25:43.070Z,1.80
2022-07-31T17:30:42.546Z,2.00
2022-07-31T17:33:09.907Z,1.55
2022-07-31T17:35:37.341Z,2.10
2022-07-31T17:40:43.541Z,1.40
2022-07-31T17:43:11.727Z,1.77
2022-07-31T17:46:05.889Z,1.63
2022-07-31T17:48:28.416Z,1.30
2022-07-31T17:53:22.940Z,1.30
2022-07-31T17:55:58.719Z,1.02
2022-07-31T17:58:25.915Z,1.25
2022-07-31T18:00:53.157Z,2.05
2022-07-31T18:03:22.161Z,1.25
2022-07-31T18:05:49.489Z,1.35
2022-07-31T18:08:16.632Z,1.30
2022-07-31T18:10:54.252Z,1.45
2022-07-31T18:15:50.514Z,1.30
2022-07-31T18:18:17.686Z,1.35
2022-07-31T18:20:45.845Z,1.23
2022-07-31T18:23:14.329Z,1.27
2022-07-31T18:25:41.774Z,1.30
2022-07-31T18:28:09.338Z,1.15
2022-07-31T18:33:09.984Z,1.20
2022-07-31T18:35:37.157Z,1.58
2022-07-31T18:38:04.506Z,1.23
2022-07-31T18:40:32.742Z,1.40
2022-07-31T18:43:00.029Z,1.58
2022-07-31T18:45:28.084Z,1.27
2022-07-31T18:47:55.556Z,1.00
2022-07-31T18:50:59.863Z,1.38
2022-07-31T18:53:10.475Z,1.20
2022-07-31T18:55:37.783Z,1.63
2022-07-31T18:58:05.367Z,1.20
2022-07-31T19:02:59.937Z,1.60
2022-07-31T19:05:27.849Z,1.40
2022-07-31T19:07:55.333Z,1.38
2022-07-31T19:12:58.637Z,1.40
2022-07-31T19:15:25.810Z,1.50
2022-07-31T19:17:54.830Z,1.40
2022-07-31T19:20:41.355Z,1.25
2022-07-31T19:23:15.642Z,1.30
2022-07-31T19:25:59.448Z,1.67
2022-07-31T19:28:30.451Z,1.48
2022-07-31T19:30:58.235Z,1.33
2022-07-31T19:33:25.637Z,1.25
2022-07-31T19:35:58.456Z,1.65
2022-07-31T19:38:29.206Z,1.70
2022-07-31T19:40:56.352Z,1.30
2022-07-31T19:43:23.707Z,1.45
2022-07-31T19:46:02.466Z,1.67
2022-07-31T19:48:39.689Z,1.67
2022-07-31T19:51:07.263Z,1.60
2022-07-31T19:56:05.373Z,1.40
2022-07-31T19:58:35.302Z,1.58
2022-07-31T20:01:03.222Z,1.30
2022-07-31T20:03:30.582Z,1.65
2022-07-31T20:05:58.377Z,1.17
2022-07-31T20:08:25.790Z,1.35
2022-07-31T20:10:54.190Z,1.50
2022-07-31T20:13:22.861Z,1.70
2022-07-31T20:15:52.411Z,1.30
2022-07-31T20:18:30.069Z,1.48
2022-07-31T20:20:59.066Z,1.50
2022-07-31T20:23:26.575Z,1.55
2022-07-31T23:08:54.702Z,2.03
2022-07-31T23:11:22.132Z,1.80
2022-07-31T23:13:49.325Z,1.80
2022-07-31T23:16:17.057Z,2.15
2022-07-31T23:18:44.204Z,2.10
2022-07-31T23:21:11.352Z,1.70
2022-07-31T23:23:38.791Z,2.20
2022-07-31T23:26:05.955Z,1.70
2022-07-31T23:28:33.679Z,1.88
2022-07-31T23:31:01.195Z,2.22
2022-07-31T23:35:55.454Z,2.00
2022-07-31T23:38:22.924Z,1.98
2022-07-31T23:40:50.056Z,2.40
2022-07-31T23:43:20.922Z,2.20
2022-07-31T23:45:48.936Z,2.50
2022-07-31T23:48:16.375Z,2.40
2022-07-31T23:50:44.349Z,2.10
2022-07-31T23:55:42.854Z,2.20
2022-07-31T23:58:10.406Z,2.40
